createdAt,value
2019-02-06T00:02:51.626Z,10.03
2019-02-06T00:08:00.496Z,10.20
2019-02-06T00:13:09.662Z,10.17
2019-02-06T00:18:18.331Z,10.40
2019-02-06T00:23:37.037Z,9.68
2019-02-06T00:28:47.213Z,8.93
2019-02-06T00:33:59.756Z,8.17
2019-02-06T00:39:16.630Z,7.35
2019-02-06T00:44:31.973Z,7.30
2019-02-06T00:49:44.642Z,6.80
2019-02-06T00:54:56.292Z,7.30
2019-02-06T01:00:06.212Z,6.97
2019-02-06T01:05:18.698Z,7.70
2019-02-06T01:10:33.251Z,7.28
2019-02-06T01:15:44.434Z,7.53
2019-02-06T01:20:52.389Z,7.50
2019-02-06T01:26:04.540Z,7.40
2019-02-06T01:31:19.932Z,8.27
2019-02-06T01:36:33.448Z,7.47
2019-02-06T01:41:47.188Z,7.43
2019-02-06T01:46:59.332Z,8.73
2019-02-06T01:52:13.814Z,7.40
2019-02-06T01:57:23.792Z,7.53
2019-02-06T02:02:33.073Z,7.07
2019-02-06T02:07:45.832Z,7.77
2019-02-06T02:12:59.458Z,7.83
2019-02-06T02:18:07.373Z,7.70
2019-02-06T02:23:17.241Z,8.70
2019-02-06T02:28:28.486Z,9.30
2019-02-06T02:33:38.536Z,8.23
2019-02-06T02:38:49.466Z,8.30
2019-02-06T02:44:02.450Z,8.90
2019-02-06T02:49:12.459Z,8.77
2019-02-06T02:54:26.863Z,8.83
2019-02-06T02:59:38.910Z,9.03
2019-02-06T03:04:54.952Z,9.27
2019-02-06T03:10:02.764Z,8.80
2019-02-06T03:15:23.627Z,10.10
2019-02-06T03:20:36.299Z,9.90
2019-02-06T03:25:48.949Z,9.60
2019-02-06T03:31:00.782Z,8.80
2019-02-06T03:36:13.038Z,9.10
2019-02-06T03:41:19.864Z,9.75
2019-02-06T03:46:33.607Z,9.13
2019-02-06T03:51:43.033Z,8.67
2019-02-06T03:56:57.193Z,9.07
2019-02-06T04:02:08.601Z,8.53
2019-02-06T04:07:15.200Z,8.50
2019-02-06T04:12:30.166Z,9.50
2019-02-06T04:17:44.817Z,7.80
2019-02-06T04:22:59.441Z,8.37
2019-02-06T04:28:11.690Z,8.10
2019-02-06T04:33:26.222Z,8.93
2019-02-06T04:38:40.967Z,8.63
2019-02-06T04:43:50.995Z,7.63
2019-02-06T04:49:00.447Z,7.33
2019-02-06T04:54:11.814Z,7.55
2019-02-06T04:59:23.663Z,7.70
2019-02-06T05:04:42.606Z,7.97
2019-02-06T05:09:54.427Z,8.07
2019-02-06T05:15:05.447Z,8.03
2019-02-06T05:20:36.450Z,8.33
2019-02-06T05:25:47.336Z,7.83
2019-02-06T05:30:59.185Z,8.53
2019-02-06T05:36:08.399Z,8.57
2019-02-06T05:41:17.384Z,8.80
2019-02-06T05:46:27.351Z,9.47
2019-02-06T05:51:42.250Z,9.90
2019-02-06T05:56:54.951Z,9.10
2019-02-06T06:02:08.844Z,9.53
2019-02-06T06:07:20.870Z,10.23
2019-02-06T06:12:31.972Z,10.77
2019-02-06T06:17:44.105Z,11.17
2019-02-06T06:22:56.845Z,10.80
2019-02-06T06:28:04.921Z,10.27
2019-02-06T06:33:14.951Z,10.40
2019-02-06T06:38:24.903Z,9.53
2019-02-06T06:43:33.036Z,10.83
2019-02-06T06:48:42.270Z,9.77
2019-02-06T06:53:52.199Z,9.20
2019-02-06T06:59:03.469Z,9.43
2019-02-06T07:04:16.200Z,8.87
2019-02-06T07:09:26.920Z,9.48
2019-02-06T07:14:39.592Z,9.47
2019-02-06T07:19:48.213Z,9.23
2019-02-06T07:24:59.056Z,9.63
2019-02-06T07:30:08.554Z,8.90
2019-02-06T07:35:19.301Z,8.63
2019-02-06T07:40:31.044Z,9.83
2019-02-06T07:45:43.682Z,8.93
2019-02-06T07:50:50.988Z,8.13
2019-02-06T07:56:02.109Z,8.93
2019-02-06T08:01:10.373Z,8.97
2019-02-06T08:06:23.043Z,9.50
2019-02-06T08:11:37.638Z,8.97
2019-02-06T08:16:52.676Z,9.93
2019-02-06T08:22:06.890Z,10.37
2019-02-06T08:27:21.187Z,9.95
2019-02-06T08:32:38.597Z,10.80
2019-02-06T08:37:51.323Z,10.00
2019-02-06T08:43:02.893Z,10.20
2019-02-06T08:48:08.744Z,10.97
2019-02-06T08:53:17.054Z,10.43
2019-02-06T08:58:25.305Z,11.05
2019-02-06T09:03:41.490Z,12.40
2019-02-06T09:08:59.946Z,13.67
2019-02-06T09:14:03.387Z,14.03
2019-02-06T09:19:22.587Z,13.87
2019-02-06T09:24:40.495Z,14.50
2019-02-06T09:29:58.600Z,15.37
2019-02-06T09:35:09.556Z,16.13
2019-02-06T09:40:24.396Z,15.68
2019-02-06T09:45:37.828Z,16.80
2019-02-06T09:50:50.419Z,16.93
2019-02-06T09:56:06.155Z,15.87
2019-02-06T10:01:33.478Z,15.93
2019-02-06T10:07:03.813Z,15.37
2019-02-06T10:12:19.174Z,15.73
2019-02-06T10:17:27.526Z,15.07
2019-02-06T10:22:41.963Z,15.80
2019-02-06T10:27:59.273Z,14.27
2019-02-06T10:33:13.387Z,13.60
2019-02-06T10:38:20.735Z,13.98
2019-02-06T10:43:32.219Z,13.93
2019-02-06T10:48:38.690Z,13.08
2019-02-06T10:53:45.979Z,14.17
2019-02-06T10:58:55.072Z,12.90
2019-02-06T11:04:09.636Z,13.93
2019-02-06T11:09:21.647Z,13.65
2019-02-06T11:14:38.794Z,13.40
2019-02-06T11:19:47.748Z,15.20
2019-02-06T11:24:58.570Z,15.13
2019-02-06T11:30:07.343Z,14.98
2019-02-06T11:35:18.630Z,16.12
2019-02-06T11:40:30.144Z,16.30
2019-02-06T11:45:45.457Z,15.70
2019-02-06T11:50:54.894Z,16.07
2019-02-06T11:56:07.505Z,15.50
2019-02-06T12:01:25.978Z,14.97
2019-02-06T12:06:35.149Z,15.60
2019-02-06T12:11:52.901Z,13.57
2019-02-06T12:17:04.762Z,14.80
2019-02-06T12:22:12.302Z,15.10
2019-02-06T12:27:20.966Z,15.03
2019-02-06T12:32:36.391Z,14.43
2019-02-06T12:37:48.897Z,14.40
2019-02-06T12:42:58.837Z,14.93
2019-02-06T12:48:06.530Z,15.17
2019-02-06T12:53:17.277Z,13.67
2019-02-06T12:58:26.210Z,14.20
2019-02-06T13:03:37.826Z,13.93
2019-02-06T13:08:54.885Z,13.83
2019-02-06T13:14:05.777Z,14.90
2019-02-06T13:19:15.266Z,14.17
2019-02-06T13:24:31.113Z,14.03
2019-02-06T13:29:42.701Z,13.60
2019-02-06T13:34:55.279Z,13.00
2019-02-06T13:40:07.755Z,14.27
2019-02-06T13:45:23.050Z,13.33
2019-02-06T13:50:34.025Z,15.47
2019-02-06T13:55:45.247Z,14.27
2019-02-06T14:00:53.319Z,13.30
2019-02-06T14:06:01.419Z,14.47
2019-02-06T14:11:09.461Z,13.97
2019-02-06T14:16:19.447Z,15.20
2019-02-06T14:21:25.979Z,14.23
2019-02-06T14:26:55.844Z,13.23
2019-02-06T14:32:53.257Z,14.87
2019-02-06T14:38:33.356Z,15.10
2019-02-06T14:44:40.777Z,15.80
2019-02-06T14:50:27.206Z,15.70
2019-02-06T14:56:20.966Z,15.33
2019-02-06T15:01:54.488Z,16.20
2019-02-06T15:07:45.805Z,16.27
2019-02-06T15:13:28.190Z,16.47
2019-02-06T15:19:16.997Z,16.47
2019-02-06T15:25:12.012Z,16.00
2019-02-06T15:30:55.235Z,17.23
2019-02-06T15:36:37.010Z,15.60
2019-02-06T15:42:04.939Z,16.77
2019-02-06T15:47:47.429Z,16.60
2019-02-06T15:53:25.138Z,15.50
2019-02-06T15:59:05.197Z,14.20
2019-02-06T16:04:58.052Z,15.00
2019-02-06T16:10:45.131Z,15.57
2019-02-06T16:16:24.473Z,16.20
2019-02-06T16:21:59.500Z,17.17
2019-02-06T16:27:40.805Z,17.10
2019-02-06T16:33:16.327Z,17.40
2019-02-06T16:39:02.193Z,17.27
2019-02-06T16:44:46.548Z,17.37
2019-02-06T16:50:36.804Z,17.43
2019-02-06T16:56:10.896Z,18.60
2019-02-06T17:01:48.721Z,21.30
2019-02-06T17:07:38.382Z,21.53
2019-02-06T17:13:15.436Z,20.50
2019-02-06T17:19:28.813Z,20.87
2019-02-06T17:25:15.921Z,21.00
2019-02-06T17:30:41.126Z,22.27
2019-02-06T17:36:19.517Z,22.73
2019-02-06T17:41:40.523Z,20.27
2019-02-06T17:47:13.718Z,21.17
2019-02-06T17:52:58.264Z,19.90
2019-02-06T17:58:10.945Z,19.20
2019-02-06T18:03:25.882Z,21.57
2019-02-06T18:08:35.882Z,19.40
2019-02-06T18:13:47.572Z,21.17
2019-02-06T18:19:00.071Z,20.57
2019-02-06T18:24:07.637Z,18.63
2019-02-06T18:29:23.302Z,18.63
2019-02-06T18:34:33.468Z,17.90
2019-02-06T18:39:43.318Z,17.70
2019-02-06T18:44:56.772Z,17.17
2019-02-06T18:50:06.956Z,18.17
2019-02-06T18:55:16.273Z,17.50
2019-02-06T19:00:34.310Z,17.47
2019-02-06T19:05:46.782Z,16.67
2019-02-06T19:10:56.871Z,16.27
2019-02-06T19:16:05.860Z,15.00
2019-02-06T19:21:16.587Z,15.43
2019-02-06T19:26:26.567Z,15.20
2019-02-06T19:31:40.358Z,15.53
2019-02-06T19:36:52.899Z,15.97
2019-02-06T19:42:02.471Z,14.73
2019-02-06T19:47:11.450Z,13.90
2019-02-06T19:52:24.273Z,14.10
2019-02-06T19:57:39.564Z,15.07
2019-02-06T20:02:52.423Z,15.57
2019-02-06T20:09:05.509Z,17.27
2019-02-06T20:14:17.674Z,16.83
2019-02-06T20:19:27.567Z,16.27
2019-02-06T20:24:41.862Z,17.27
2019-02-06T20:29:53.597Z,18.77
2019-02-06T20:35:05.422Z,19.13
2019-02-06T20:40:29.924Z,19.40
2019-02-06T20:45:39.832Z,21.27
2019-02-06T20:50:51.595Z,19.97
2019-02-06T20:56:06.438Z,21.43
2019-02-06T21:01:18.258Z,21.37
2019-02-06T21:06:27.731Z,23.20
2019-02-06T21:11:44.172Z,21.47
2019-02-06T21:16:54.186Z,22.37
2019-02-06T21:22:07.656Z,22.77
2019-02-06T21:27:17.540Z,22.93
2019-02-06T21:32:25.186Z,21.60
2019-02-06T21:37:37.733Z,22.70
2019-02-06T21:42:53.028Z,21.83
2019-02-06T21:48:04.778Z,21.03
2019-02-06T21:53:20.239Z,20.27
2019-02-06T21:58:32.742Z,21.17
2019-02-06T22:03:43.589Z,20.45
2019-02-06T22:08:55.273Z,22.50
2019-02-06T22:14:12.017Z,22.57
2019-02-06T22:19:23.307Z,23.10
2019-02-06T22:24:34.932Z,20.97
2019-02-06T22:29:48.357Z,19.93
2019-02-06T22:35:07.558Z,19.30
2019-02-06T22:40:36.727Z,20.00
2019-02-06T22:45:44.960Z,18.07
2019-02-06T22:50:56.803Z,19.87
2019-02-06T22:56:09.438Z,18.20
2019-02-06T23:01:36.774Z,19.43
2019-02-06T23:06:47.143Z,17.67
2019-02-06T23:12:03.357Z,19.97
2019-02-06T23:17:14.288Z,17.73
2019-02-06T23:22:27.062Z,16.40
2019-02-06T23:27:36.958Z,18.07
2019-02-06T23:32:48.173Z,20.43
2019-02-06T23:37:56.536Z,18.77
2019-02-06T23:43:06.117Z,18.90
2019-02-06T23:48:16.837Z,17.20
2019-02-06T23:53:34.465Z,18.02
2019-02-06T23:58:46.264Z,21.20
